createdAt,value
2018-06-11T00:02:15.820Z,2.10
2018-06-11T00:04:44.323Z,2.20
2018-06-11T00:07:12.561Z,2.97
2018-06-11T00:09:40.820Z,2.20
2018-06-11T00:12:09.835Z,2.20
2018-06-11T00:14:38.079Z,2.50
2018-06-11T00:17:06.607Z,2.63
2018-06-11T00:19:34.870Z,2.47
2018-06-11T00:22:03.115Z,2.27
2018-06-11T00:24:32.384Z,2.27
2018-06-11T00:27:00.635Z,2.20
2018-06-11T00:29:28.883Z,2.47
2018-06-11T00:31:57.135Z,2.40
2018-06-11T00:34:26.142Z,2.43
2018-06-11T00:36:55.166Z,2.87
2018-06-11T00:39:23.419Z,2.47
2018-06-11T00:41:51.665Z,2.80
2018-06-11T00:44:19.920Z,2.70
2018-06-11T00:46:48.175Z,2.47
2018-06-11T00:49:16.434Z,2.93
2018-06-11T00:51:44.675Z,2.67
2018-06-11T00:54:13.693Z,2.70
2018-06-11T00:56:41.947Z,2.67
2018-06-11T00:59:10.957Z,2.50
2018-06-11T01:01:39.303Z,3.23
2018-06-11T01:04:07.510Z,3.00
2018-06-11T01:06:35.773Z,3.07
2018-06-11T01:09:04.025Z,3.43
2018-06-11T01:11:32.297Z,3.23
2018-06-11T01:14:00.553Z,3.40
2018-06-11T01:16:28.805Z,3.27
2018-06-11T01:18:57.065Z,3.83
2018-06-11T01:21:25.307Z,3.70
2018-06-11T01:23:54.336Z,3.47
2018-06-11T01:26:22.571Z,3.30
2018-06-11T01:28:51.600Z,3.80
2018-06-11T01:31:19.955Z,3.57
2018-06-11T01:33:48.987Z,4.10
2018-06-11T01:36:17.305Z,3.57
2018-06-11T01:38:45.518Z,3.50
2018-06-11T01:41:13.755Z,4.00
2018-06-11T01:43:42.018Z,3.73
2018-06-11T01:46:10.255Z,3.67
2018-06-11T01:48:38.499Z,3.83
2018-06-11T01:51:06.755Z,4.13
2018-06-11T01:53:35.786Z,3.90
2018-06-11T01:56:04.059Z,3.70
2018-06-11T01:58:32.311Z,4.00
2018-06-11T02:01:01.427Z,3.80
2018-06-11T02:03:29.676Z,3.50
2018-06-11T02:05:58.838Z,3.63
2018-06-11T02:08:27.091Z,4.10
2018-06-11T02:10:55.344Z,4.00
2018-06-11T02:13:23.598Z,3.97
2018-06-11T02:15:52.655Z,4.10
2018-06-11T02:18:21.009Z,4.17
2018-06-11T02:20:49.255Z,4.30
2018-06-11T02:23:17.500Z,4.20
2018-06-11T02:25:45.755Z,4.30
2018-06-11T02:28:14.006Z,4.00
2018-06-11T02:30:42.266Z,4.40
2018-06-11T02:33:10.522Z,4.10
2018-06-11T02:35:39.535Z,4.10
2018-06-11T02:38:07.789Z,4.20
2018-06-11T02:40:36.799Z,3.90
2018-06-11T02:43:05.064Z,4.50
2018-06-11T02:45:33.315Z,4.00
2018-06-11T02:48:02.343Z,4.53
2018-06-11T02:50:30.584Z,4.47
2018-06-11T02:52:59.606Z,4.67
2018-06-11T02:55:27.871Z,4.90
2018-06-11T02:57:56.114Z,4.90
2018-06-11T03:00:24.362Z,4.30
2018-06-11T03:02:52.616Z,4.43
2018-06-11T03:05:20.971Z,4.50
2018-06-11T03:07:49.228Z,4.73
2018-06-11T03:10:18.500Z,4.27
2018-06-11T03:12:46.742Z,4.37
2018-06-11T03:15:14.993Z,4.47
2018-06-11T03:17:44.319Z,4.27
2018-06-11T03:20:12.559Z,4.03
2018-06-11T03:22:41.578Z,4.97
2018-06-11T03:25:09.839Z,4.90
2018-06-11T03:27:38.090Z,5.33
2018-06-11T03:30:07.110Z,5.87
2018-06-11T03:32:35.369Z,5.70
2018-06-11T03:35:04.394Z,5.10
2018-06-11T03:37:32.651Z,5.60
2018-06-11T03:40:00.903Z,5.23
2018-06-11T03:42:29.937Z,6.00
2018-06-11T03:44:58.179Z,5.87
2018-06-11T03:47:27.207Z,5.77
2018-06-11T03:49:55.455Z,5.90
2018-06-11T03:52:23.715Z,6.60
2018-06-11T03:54:52.727Z,6.40
2018-06-11T03:57:20.985Z,7.00
2018-06-11T03:59:50.013Z,6.67
2018-06-11T04:02:18.264Z,6.60
2018-06-11T04:04:46.522Z,6.13
2018-06-11T04:07:15.540Z,6.07
2018-06-11T04:09:43.902Z,6.03
2018-06-11T04:12:12.919Z,5.67
2018-06-11T04:14:41.211Z,5.47
2018-06-11T04:17:09.471Z,6.03
2018-06-11T04:19:37.719Z,4.97
2018-06-11T04:22:06.742Z,5.23
2018-06-11T04:24:35.003Z,5.40
2018-06-11T04:27:03.262Z,5.27
2018-06-11T04:29:32.276Z,5.40
2018-06-11T04:32:01.153Z,5.17
2018-06-11T04:34:30.160Z,4.70
2018-06-11T04:36:58.411Z,4.80
2018-06-11T04:39:27.435Z,4.33
2018-06-11T04:41:55.776Z,4.70
2018-06-11T04:44:24.490Z,4.50
2018-06-11T04:46:52.738Z,4.87
2018-06-11T04:49:21.775Z,5.17
2018-06-11T04:51:50.016Z,4.60
2018-06-11T04:54:18.263Z,5.30
2018-06-11T04:56:46.523Z,5.03
2018-06-11T04:59:14.775Z,4.90
2018-06-11T05:01:43.018Z,5.10
2018-06-11T05:04:11.275Z,5.30
2018-06-11T05:06:40.291Z,4.53
2018-06-11T05:09:08.663Z,4.33
2018-06-11T05:11:36.914Z,4.70
2018-06-11T05:14:05.154Z,4.73
2018-06-11T05:16:33.414Z,4.70
2018-06-11T05:19:01.673Z,4.80
2018-06-11T05:21:29.934Z,4.70
2018-06-11T05:23:58.182Z,5.20
2018-06-11T05:26:27.202Z,5.03
2018-06-11T05:28:55.465Z,4.33
2018-06-11T05:31:24.474Z,4.80
2018-06-11T05:33:52.850Z,4.30
2018-06-11T05:36:21.107Z,4.50
2018-06-11T05:38:50.123Z,4.70
2018-06-11T05:41:18.391Z,4.50
2018-06-11T05:43:46.639Z,4.70
2018-06-11T05:48:49.507Z,4.20
2018-06-11T05:51:18.877Z,4.50
2018-06-11T05:53:47.137Z,4.60
2018-06-11T05:56:15.375Z,4.37
2018-06-11T05:58:43.635Z,4.20
2018-06-11T06:01:11.891Z,4.50
2018-06-11T06:03:40.150Z,4.23
2018-06-11T06:06:08.439Z,4.47
2018-06-11T06:08:37.417Z,4.33
2018-06-11T06:11:05.678Z,4.40
2018-06-11T06:13:33.947Z,4.50
2018-06-11T06:16:02.976Z,4.80
2018-06-11T06:18:31.235Z,4.37
2018-06-11T06:20:59.486Z,4.37
2018-06-11T06:23:28.514Z,4.50
2018-06-11T06:25:56.768Z,4.00
2018-06-11T06:28:25.027Z,4.50
2018-06-11T06:30:54.063Z,4.77
2018-06-11T06:33:22.563Z,4.57
2018-06-11T06:35:50.814Z,4.63
2018-06-11T06:38:19.071Z,4.53
2018-06-11T06:40:48.099Z,4.80
2018-06-11T06:43:16.363Z,4.93
2018-06-11T06:45:44.612Z,4.23
2018-06-11T06:48:12.864Z,4.33
2018-06-11T06:50:41.888Z,4.43
2018-06-11T06:53:10.208Z,4.63
2018-06-11T06:55:38.443Z,4.80
2018-06-11T06:58:07.310Z,4.23
2018-06-11T07:00:35.574Z,4.40
2018-06-11T07:03:04.595Z,4.97
2018-06-11T07:05:33.047Z,4.80
2018-06-11T07:08:02.072Z,4.90
2018-06-11T07:10:30.648Z,4.20
2018-06-11T07:12:58.913Z,4.87
2018-06-11T07:15:27.918Z,5.20
2018-06-11T07:17:56.179Z,4.97
2018-06-11T07:20:24.445Z,5.47
2018-06-11T07:22:52.818Z,5.20
2018-06-11T07:25:21.832Z,4.80
2018-06-11T07:27:50.095Z,5.10
2018-06-11T07:30:18.356Z,5.10
2018-06-11T07:32:47.387Z,5.73
2018-06-11T07:35:15.639Z,4.70
2018-06-11T07:37:43.898Z,5.40
2018-06-11T07:40:12.922Z,5.43
2018-06-11T07:42:41.184Z,5.20
2018-06-11T07:45:09.469Z,6.20
2018-06-11T07:47:37.720Z,5.80
2018-06-11T07:50:06.755Z,5.53
2018-06-11T07:52:35.017Z,5.37
2018-06-11T07:55:03.300Z,5.60
2018-06-11T07:57:31.563Z,5.07
2018-06-11T07:59:59.835Z,5.83
2018-06-11T08:02:28.084Z,6.00
2018-06-11T08:04:57.124Z,5.47
2018-06-11T08:07:25.442Z,5.80
2018-06-11T08:09:53.658Z,5.63
2018-06-11T08:12:21.913Z,5.43
2018-06-11T08:14:50.151Z,5.43
2018-06-11T08:17:18.579Z,6.43
2018-06-11T08:19:46.829Z,6.27
2018-06-11T08:22:15.864Z,6.33
2018-06-11T08:24:44.122Z,6.33
2018-06-11T08:27:12.602Z,6.67
2018-06-11T08:29:40.864Z,6.60
2018-06-11T08:32:09.119Z,6.40
2018-06-11T08:34:38.145Z,6.57
2018-06-11T08:37:06.394Z,6.20
2018-06-11T08:39:35.420Z,6.23
2018-06-11T08:42:03.662Z,7.17
2018-06-11T08:44:32.715Z,6.87
2018-06-11T08:47:00.957Z,6.20
2018-06-11T08:49:29.212Z,7.40
2018-06-11T08:51:57.487Z,6.10
2018-06-11T08:54:26.502Z,6.80
2018-06-11T08:56:54.759Z,6.00
2018-06-11T08:59:23.022Z,6.70
2018-06-11T09:01:52.040Z,7.10
2018-06-11T09:04:20.305Z,7.10
2018-06-11T09:06:48.553Z,6.77
2018-06-11T09:09:17.582Z,7.27
2018-06-11T09:11:45.833Z,6.97
2018-06-11T09:14:14.170Z,7.20
2018-06-11T09:16:42.427Z,7.00
2018-06-11T09:19:10.679Z,6.17
2018-06-11T09:21:38.937Z,6.53
2018-06-11T09:24:07.251Z,7.37
2018-06-11T09:26:35.765Z,6.90
2018-06-11T09:29:04.023Z,6.83
2018-06-11T09:31:32.277Z,6.90
2018-06-11T09:34:00.799Z,6.33
2018-06-11T09:36:29.044Z,6.77
2018-06-11T09:38:57.282Z,6.50
2018-06-11T09:41:25.557Z,7.07
2018-06-11T09:43:54.664Z,7.03
2018-06-11T09:46:22.818Z,6.13
2018-06-11T09:48:51.091Z,7.10
2018-06-11T09:51:20.181Z,7.23
2018-06-11T09:53:49.211Z,6.93
2018-06-11T09:56:17.483Z,6.43
2018-06-11T09:58:45.734Z,6.50
2018-06-11T10:01:14.104Z,6.97
2018-06-11T10:03:43.209Z,6.43
2018-06-11T10:06:11.386Z,6.60
2018-06-11T10:08:39.643Z,6.30
2018-06-11T10:11:08.675Z,6.97
2018-06-11T10:13:37.279Z,6.53
2018-06-11T10:16:05.517Z,6.23
2018-06-11T10:18:33.781Z,6.10
2018-06-11T10:21:02.032Z,5.93
2018-06-11T10:23:31.071Z,7.00
2018-06-11T10:25:59.330Z,6.57
2018-06-11T10:28:27.609Z,5.87
2018-06-11T10:30:55.914Z,6.00
2018-06-11T10:33:24.955Z,6.17
2018-06-11T10:35:54.001Z,6.47
2018-06-11T10:38:23.046Z,6.33
2018-06-11T10:40:52.047Z,6.23
2018-06-11T10:43:20.383Z,6.00
2018-06-11T10:45:48.647Z,6.27
2018-06-11T10:48:16.900Z,6.73
2018-06-11T10:50:45.162Z,6.60
2018-06-11T10:53:13.427Z,6.90
2018-06-11T10:55:41.715Z,6.37
2018-06-11T10:58:10.291Z,6.23
2018-06-11T11:00:38.547Z,5.97
2018-06-11T11:03:07.559Z,5.90
2018-06-11T11:05:35.827Z,6.47
2018-06-11T11:08:04.076Z,5.90
2018-06-11T11:10:32.332Z,6.60
2018-06-11T11:13:00.579Z,6.10
2018-06-11T11:15:28.844Z,5.53
2018-06-11T11:17:57.086Z,6.03
2018-06-11T11:20:26.112Z,5.80
2018-06-11T11:22:54.524Z,5.70
2018-06-11T11:25:22.767Z,5.40
2018-06-11T11:27:51.025Z,5.90
2018-06-11T11:30:19.290Z,6.00
2018-06-11T11:32:47.557Z,5.40
2018-06-11T11:35:16.561Z,5.40
2018-06-11T11:37:44.822Z,5.53
2018-06-11T11:40:13.858Z,6.00
2018-06-11T11:42:42.099Z,5.80
2018-06-11T11:45:10.366Z,5.57
2018-06-11T11:47:39.391Z,6.03
2018-06-11T11:50:07.871Z,6.40
2018-06-11T11:52:36.124Z,6.37
2018-06-11T11:55:04.372Z,5.90
2018-06-11T11:57:32.902Z,6.27
2018-06-11T12:00:01.153Z,5.80
2018-06-11T12:02:29.426Z,6.20
2018-06-11T12:04:57.671Z,6.27
2018-06-11T12:07:26.084Z,5.60
2018-06-11T12:09:54.343Z,5.80
2018-06-11T12:12:23.358Z,5.67
2018-06-11T12:14:51.611Z,6.30
2018-06-11T12:17:20.645Z,5.60
2018-06-11T12:19:48.891Z,6.30
2018-06-11T12:22:17.139Z,5.87
2018-06-11T12:24:45.419Z,5.60
2018-06-11T12:27:13.658Z,5.73
2018-06-11T12:29:42.675Z,6.13
2018-06-11T12:32:10.964Z,6.50
2018-06-11T12:34:39.984Z,5.77
2018-06-11T12:37:08.231Z,6.23
2018-06-11T12:39:36.562Z,5.80
2018-06-11T12:42:04.797Z,6.10
2018-06-11T12:44:33.051Z,6.20
2018-06-11T12:47:01.317Z,5.47
2018-06-11T12:49:29.566Z,5.60
2018-06-11T12:51:57.860Z,5.37
2018-06-11T12:54:26.876Z,5.30
2018-06-11T12:56:55.912Z,5.80
2018-06-11T12:59:24.489Z,5.77
2018-06-11T13:01:52.731Z,5.40
2018-06-11T13:04:21.776Z,5.77
2018-06-11T13:06:50.344Z,5.77
2018-06-11T13:09:18.591Z,5.70
2018-06-11T13:11:47.622Z,6.20
2018-06-11T13:14:15.871Z,6.17
2018-06-11T13:16:44.151Z,6.00
2018-06-11T13:19:12.422Z,5.87
2018-06-11T13:21:40.684Z,6.00
2018-06-11T13:24:08.951Z,5.30
2018-06-11T13:26:37.979Z,5.40
2018-06-11T13:29:06.228Z,5.67
2018-06-11T13:31:34.497Z,5.83
2018-06-11T13:34:03.540Z,5.13
2018-06-11T13:36:31.792Z,4.93
2018-06-11T13:39:00.048Z,5.37
2018-06-11T13:41:29.098Z,5.53
2018-06-11T13:43:57.346Z,4.77
2018-06-11T13:46:25.620Z,5.03
2018-06-11T13:48:53.868Z,5.17
2018-06-11T13:51:22.235Z,5.30
2018-06-11T13:53:50.483Z,5.13
2018-06-11T13:56:18.730Z,5.67
2018-06-11T13:58:47.792Z,5.33
2018-06-11T14:01:16.075Z,4.47
2018-06-11T14:03:45.108Z,4.40
2018-06-11T14:06:13.365Z,5.17
2018-06-11T14:08:41.788Z,4.07
2018-06-11T14:11:10.020Z,3.23
2018-06-11T14:13:38.279Z,3.73
2018-06-11T14:16:06.528Z,3.63
2018-06-11T14:18:34.850Z,2.93
2018-06-11T14:21:03.213Z,3.80
2018-06-11T14:23:31.717Z,3.90
2018-06-11T14:26:00.023Z,3.00
2018-06-11T14:28:29.293Z,3.40
2018-06-11T14:30:57.629Z,4.33
2018-06-11T14:33:26.691Z,4.53
2018-06-11T14:35:55.791Z,4.63
2018-06-11T14:38:24.054Z,4.50
2018-06-11T14:40:52.326Z,4.40
2018-06-11T14:43:21.362Z,3.87
2018-06-11T14:45:49.623Z,3.77
2018-06-11T14:48:17.998Z,3.93
2018-06-11T14:50:46.266Z,3.50
2018-06-11T14:53:15.290Z,4.37
2018-06-11T14:55:43.564Z,3.53
2018-06-11T14:58:11.929Z,4.20
2018-06-11T15:00:40.092Z,4.10
2018-06-11T15:03:09.121Z,4.13
2018-06-11T15:05:37.384Z,4.00
2018-06-11T15:08:05.927Z,4.20
2018-06-11T15:10:34.938Z,3.43
2018-06-11T15:13:03.189Z,3.70
2018-06-11T15:15:32.246Z,3.30
2018-06-11T15:18:00.490Z,3.30
2018-06-11T15:20:28.788Z,3.50
2018-06-11T15:22:57.036Z,3.10
2018-06-11T15:25:25.303Z,2.97
2018-06-11T15:27:54.322Z,3.53
2018-06-11T15:30:22.624Z,3.90
2018-06-11T15:32:50.898Z,4.43
2018-06-11T15:35:19.147Z,4.40
2018-06-11T15:37:47.420Z,3.03
2018-06-11T15:40:15.701Z,3.10
2018-06-11T15:42:44.261Z,2.53
2018-06-11T15:45:12.537Z,2.90
2018-06-11T15:47:40.849Z,3.13
2018-06-11T15:50:09.199Z,3.53
2018-06-11T15:52:37.440Z,2.93
2018-06-11T15:55:06.479Z,2.90
2018-06-11T15:57:34.773Z,2.67
2018-06-11T16:00:03.174Z,2.57
2018-06-11T16:02:32.277Z,2.53
2018-06-11T16:05:00.552Z,2.53
2018-06-11T16:07:28.838Z,2.60
2018-06-11T16:09:57.847Z,3.03
2018-06-11T16:12:26.114Z,2.97
2018-06-11T16:14:54.390Z,2.80
2018-06-11T16:17:23.499Z,3.00
2018-06-11T16:19:51.786Z,3.40
2018-06-11T16:22:20.344Z,3.23
2018-06-11T16:24:48.609Z,2.87
2018-06-11T16:27:17.643Z,2.80
2018-06-11T16:29:45.895Z,2.73
2018-06-11T16:32:14.928Z,2.70
2018-06-11T16:34:43.175Z,3.50
2018-06-11T16:37:11.470Z,2.87
2018-06-11T16:39:39.740Z,2.50
2018-06-11T16:42:07.983Z,3.20
2018-06-11T16:44:36.282Z,2.67
2018-06-11T16:47:04.549Z,3.27
2018-06-11T16:49:32.883Z,2.80
2018-06-11T16:52:01.936Z,3.10
2018-06-11T16:54:30.180Z,3.50
2018-06-11T16:56:58.449Z,3.13
2018-06-11T16:59:26.715Z,2.57
2018-06-11T17:01:55.611Z,2.57
2018-06-11T17:04:24.645Z,2.50
2018-06-11T17:06:53.646Z,2.17
2018-06-11T17:09:21.925Z,2.27
2018-06-11T17:11:50.184Z,2.23
2018-06-11T17:14:18.451Z,1.90
2018-06-11T17:16:46.704Z,1.90
2018-06-11T17:19:14.991Z,2.20
2018-06-11T17:21:43.251Z,2.27
2018-06-11T17:24:11.522Z,2.20
2018-06-11T17:26:39.932Z,1.90
2018-06-11T17:29:08.227Z,2.00
2018-06-11T17:31:36.490Z,2.03
2018-06-11T17:34:04.769Z,2.50
2018-06-11T17:36:33.191Z,2.00
2018-06-11T17:39:02.212Z,1.90
2018-06-11T17:41:30.475Z,2.07
2018-06-11T17:43:58.738Z,2.37
2018-06-11T17:46:27.743Z,2.40
2018-06-11T17:48:56.020Z,2.20
2018-06-11T17:51:24.360Z,2.50
2018-06-11T17:53:53.430Z,2.23
2018-06-11T17:56:21.671Z,2.63
2018-06-11T17:58:49.915Z,2.50
2018-06-11T18:01:18.947Z,2.23
2018-06-11T18:03:47.202Z,2.50
2018-06-11T18:06:15.492Z,2.53
2018-06-11T18:08:44.506Z,2.50
2018-06-11T18:11:12.768Z,2.50
2018-06-11T18:13:41.268Z,2.60
2018-06-11T18:16:09.554Z,2.60
2018-06-11T18:18:37.820Z,2.30
2018-06-11T18:21:06.095Z,2.30
2018-06-11T18:23:34.392Z,2.53
2018-06-11T18:26:03.071Z,2.53
2018-06-11T18:28:31.317Z,2.47
2018-06-11T18:30:59.691Z,2.67
2018-06-11T18:33:27.938Z,2.70
2018-06-11T18:35:56.972Z,2.33
2018-06-11T18:38:25.223Z,2.20
2018-06-11T18:40:53.498Z,2.30
2018-06-11T18:43:21.747Z,2.60
2018-06-11T18:45:50.779Z,2.40
2018-06-11T18:48:19.106Z,2.50
2018-06-11T18:50:47.311Z,2.90
2018-06-11T18:53:15.547Z,2.20
2018-06-11T18:55:44.594Z,2.27
2018-06-11T18:58:12.839Z,2.27
2018-06-11T19:00:41.118Z,2.63
2018-06-11T19:03:09.378Z,2.50
2018-06-11T19:05:38.492Z,2.33
2018-06-11T19:08:07.507Z,2.40
2018-06-11T19:10:35.782Z,2.43
2018-06-11T19:13:04.016Z,2.23
2018-06-11T19:15:33.047Z,2.13
2018-06-11T19:18:01.309Z,2.37
2018-06-11T19:20:29.574Z,1.80
2018-06-11T19:22:57.844Z,2.40
2018-06-11T19:25:26.226Z,2.40
2018-06-11T19:27:55.267Z,2.07
2018-06-11T19:30:23.540Z,2.20
2018-06-11T19:32:51.787Z,2.03
2018-06-11T19:35:20.120Z,2.20
2018-06-11T19:37:48.318Z,2.10
2018-06-11T19:40:17.380Z,1.90
2018-06-11T19:42:45.637Z,2.00
2018-06-11T19:45:13.918Z,2.13
2018-06-11T19:47:42.238Z,2.20
2018-06-11T19:50:10.639Z,2.27
2018-06-11T19:52:38.797Z,2.27
2018-06-11T19:55:07.075Z,2.00
2018-06-11T19:57:35.363Z,2.00
2018-06-11T20:00:03.691Z,2.40
2018-06-11T20:02:31.941Z,2.10
2018-06-11T20:05:00.192Z,2.03
2018-06-11T20:07:28.446Z,2.10
2018-06-11T20:09:56.711Z,2.30
2018-06-11T20:12:24.975Z,2.20
2018-06-11T20:14:54.009Z,2.10
2018-06-11T20:17:23.711Z,2.10
2018-06-11T20:19:52.016Z,1.70
2018-06-11T20:22:20.329Z,2.30
2018-06-11T20:24:49.344Z,2.07
2018-06-11T20:27:17.621Z,2.47
2018-06-11T20:29:46.684Z,2.10
2018-06-11T20:32:15.699Z,2.10
2018-06-11T20:34:44.023Z,2.07
2018-06-11T20:37:12.239Z,2.10
2018-06-11T20:39:41.263Z,2.30
2018-06-11T20:42:09.527Z,2.10
2018-06-11T20:44:37.837Z,2.30
2018-06-11T20:47:06.342Z,2.13
2018-06-11T20:49:34.615Z,2.10
2018-06-11T20:52:02.868Z,2.20
2018-06-11T20:54:31.134Z,2.40
2018-06-11T20:56:59.393Z,2.17
2018-06-11T20:59:27.635Z,2.20
2018-06-11T21:01:56.780Z,2.00
2018-06-11T21:04:25.020Z,1.93
2018-06-11T21:06:54.013Z,2.07
2018-06-11T21:09:22.278Z,2.10
2018-06-11T21:11:50.550Z,2.30
2018-06-11T21:14:19.583Z,2.10
2018-06-11T21:16:47.858Z,2.47
2018-06-11T21:19:16.867Z,2.30
2018-06-11T21:21:45.133Z,2.53
2018-06-11T21:24:13.417Z,2.00
2018-06-11T21:26:41.754Z,2.40
2018-06-11T21:29:09.992Z,2.20
2018-06-11T21:31:38.257Z,2.53
2018-06-11T21:34:06.512Z,2.13
2018-06-11T21:36:34.772Z,2.20
2018-06-11T21:39:03.041Z,2.40
2018-06-11T21:41:31.291Z,2.50
2018-06-11T21:43:59.549Z,2.67
2018-06-11T21:46:28.572Z,2.43
2018-06-11T21:48:56.844Z,2.83
2018-06-11T21:51:25.101Z,2.70
2018-06-11T21:53:54.116Z,2.33
2018-06-11T21:56:22.384Z,2.90
2018-06-11T21:58:50.643Z,3.17
2018-06-11T22:01:18.918Z,2.83
2018-06-11T22:03:47.964Z,3.00
2018-06-11T22:06:16.301Z,2.53
2018-06-11T22:08:44.567Z,3.00
2018-06-11T22:11:12.824Z,3.20
2018-06-11T22:13:41.873Z,3.17
2018-06-11T22:16:10.124Z,3.07
2018-06-11T22:18:38.366Z,3.40
2018-06-11T22:21:07.407Z,3.23
2018-06-11T22:23:35.690Z,3.50
2018-06-11T22:26:03.949Z,3.07
2018-06-11T22:28:32.221Z,3.57
2018-06-11T22:31:00.470Z,3.50
2018-06-11T22:33:29.511Z,2.87
2018-06-11T22:35:57.772Z,3.33
2018-06-11T22:38:26.033Z,3.80
2018-06-11T22:40:54.283Z,2.80
2018-06-11T22:43:23.424Z,3.67
2018-06-11T22:45:51.680Z,3.70
2018-06-11T22:48:19.936Z,3.70
2018-06-11T22:50:48.198Z,4.13
2018-06-11T22:53:17.215Z,3.73
2018-06-11T22:55:45.472Z,4.00
2018-06-11T22:58:14.484Z,4.50
2018-06-11T23:00:42.734Z,4.13
2018-06-11T23:03:11.781Z,4.10
2018-06-11T23:05:40.019Z,3.93
2018-06-11T23:08:08.274Z,4.47
2018-06-11T23:10:36.535Z,4.40
2018-06-11T23:13:04.785Z,4.40
2018-06-11T23:15:33.062Z,4.07
2018-06-11T23:18:01.330Z,4.40
2018-06-11T23:20:29.620Z,4.30
2018-06-11T23:22:57.876Z,3.90
2018-06-11T23:25:26.166Z,4.20
2018-06-11T23:27:54.423Z,4.33
2018-06-11T23:30:22.685Z,3.83
2018-06-11T23:32:50.950Z,5.03
2018-06-11T23:35:19.228Z,5.53
2018-06-11T23:37:47.702Z,6.73
2018-06-11T23:40:15.955Z,6.50
2018-06-11T23:42:44.969Z,6.00
2018-06-11T23:45:13.236Z,6.70
2018-06-11T23:47:41.496Z,7.30
2018-06-11T23:50:10.544Z,9.33
2018-06-11T23:52:38.799Z,10.37
2018-06-11T23:55:07.051Z,9.87
2018-06-11T23:57:36.099Z,13.83
